Time;durP1;ratioP1;P1;durP2;ratioP2;P2;SDS_P1;SDS_P2;PMS_P1;PMS_P2;Temp;Humidity;BMP_temperature;BMP_pressure;BME280_temperature;BME280_humidity;BME280_pressure;Samples;Min_cycle;Max_cycle;Signal;HPM_P1;HPM_P2
2024/02/10 00:00:26;;;;;;;0.30;0.30;;;15.10;99.90;;;;;;5106229;28;20183;-78
2024/02/10 00:02:54;;;;;;;0.30;0.20;;;15.10;99.90;;;;;;5109298;28;20443;-78
2024/02/10 00:05:23;;;;;;;0.30;0.30;;;15.00;99.90;;;;;;5109639;28;20548;-77
2024/02/10 00:07:55;;;;;;;0.30;0.20;;;15.10;99.90;;;;;;5109377;28;20445;-77
2024/02/10 00:10:25;;;;;;;0.30;0.20;;;15.10;99.90;;;;;;5107962;28;20487;-77
2024/02/10 00:13:00;;;;;;;0.30;0.20;;;15.00;99.90;;;;;;5108941;27;20465;-79
2024/02/10 00:15:27;;;;;;;0.30;0.20;;;15.00;99.90;;;;;;5107899;28;20416;-78
2024/02/10 00:17:53;;;;;;;0.30;0.30;;;15.00;99.90;;;;;;5109136;28;21006;-78
2024/02/10 00:20:20;;;;;;;1.03;1.03;;;15.00;99.90;;;;;;5109573;28;20404;-78
2024/02/10 00:22:49;;;;;;;0.40;0.20;;;15.00;99.90;;;;;;5107398;28;20447;-78
2024/02/10 00:25:15;;;;;;;1.23;1.23;;;15.00;99.90;;;;;;5108728;28;20932;-78
2024/02/10 00:27:42;;;;;;;0.30;0.20;;;15.00;99.90;;;;;;5108260;28;20440;-79
2024/02/10 00:30:08;;;;;;;0.67;0.67;;;15.00;99.90;;;;;;5109322;28;20842;-78
2024/02/10 00:32:36;;;;;;;0.30;0.20;;;15.00;99.90;;;;;;5107415;28;20411;-78
2024/02/10 00:35:02;;;;;;;0.40;0.20;;;15.00;99.90;;;;;;5109087;28;20475;-78
2024/02/10 00:37:28;;;;;;;0.50;0.50;;;15.00;99.90;;;;;;5107740;28;20420;-78
2024/02/10 00:39:54;;;;;;;0.30;0.20;;;15.00;99.90;;;;;;5108827;28;20400;-78
2024/02/10 00:42:28;;;;;;;0.30;0.20;;;15.10;99.90;;;;;;5108680;28;20388;-77
2024/02/10 00:44:56;;;;;;;0.30;0.20;;;15.10;99.90;;;;;;5107227;28;20171;-78
2024/02/10 00:47:22;;;;;;;1.43;1.43;;;15.10;99.90;;;;;;5108622;28;20483;-78
2024/02/10 00:49:48;;;;;;;0.30;0.20;;;15.10;99.90;;;;;;5107470;28;20597;-78
2024/02/10 00:52:18;;;;;;;0.30;0.20;;;15.10;99.90;;;;;;5108561;28;20559;-77
2024/02/10 00:54:47;;;;;;;0.30;0.20;;;15.10;99.90;;;;;;5107233;28;20428;-78
2024/02/10 00:57:13;;;;;;;12.07;2.83;;;15.10;99.90;;;;;;5107215;28;20423;-77
2024/02/10 00:59:41;;;;;;;0.33;0.33;;;15.10;99.90;;;;;;5107339;28;20473;-78
2024/02/10 01:02:08;;;;;;;0.30;0.20;;;15.10;99.90;;;;;;5106880;28;20176;-77
2024/02/10 01:04:34;;;;;;;0.30;0.20;;;15.10;99.90;;;;;;5108677;28;20636;-78
2024/02/10 01:07:01;;;;;;;0.30;0.20;;;15.00;99.90;;;;;;5108093;28;20686;-78
2024/02/10 01:09:29;;;;;;;0.30;0.20;;;15.10;99.90;;;;;;5107177;28;20783;-78
2024/02/10 01:11:54;;;;;;;7.10;1.70;;;15.00;99.90;;;;;;5105521;28;20543;-78
2024/02/10 01:14:21;;;;;;;0.30;0.20;;;15.20;99.90;;;;;;5108042;28;20444;-77
2024/02/10 01:16:48;;;;;;;0.30;0.20;;;15.20;99.90;;;;;;5107916;28;20408;-78
2024/02/10 01:19:17;;;;;;;0.30;0.30;;;15.20;99.90;;;;;;5108563;27;20452;-78
2024/02/10 01:21:42;;;;;;;0.30;0.20;;;15.20;99.90;;;;;;5107790;28;20404;-78
2024/02/10 01:24:09;;;;;;;0.30;0.20;;;15.10;99.90;;;;;;5108415;28;20540;-78
2024/02/10 01:26:35;;;;;;;0.30;0.30;;;15.10;99.90;;;;;;5106372;28;20236;-78
2024/02/10 01:29:07;;;;;;;0.30;0.20;;;15.10;99.90;;;;;;5107060;28;20487;-78
2024/02/10 01:31:33;;;;;;;0.30;0.20;;;15.10;99.90;;;;;;5107831;28;20393;-78
2024/02/10 01:33:59;;;;;;;0.30;0.20;;;15.00;99.90;;;;;;5106382;28;20470;-78
2024/02/10 01:36:25;;;;;;;0.30;0.20;;;15.00;99.90;;;;;;5106236;28;20179;-78
2024/02/10 01:38:50;;;;;;;0.30;0.20;;;14.90;99.90;;;;;;5107396;28;20199;-78
2024/02/10 01:41:16;;;;;;;1.50;1.40;;;14.90;99.90;;;;;;5107974;28;20184;-78
2024/02/10 01:43:44;;;;;;;0.30;0.20;;;14.90;99.90;;;;;;5106062;28;20222;-78
2024/02/10 01:46:17;;;;;;;0.30;0.20;;;14.90;99.90;;;;;;5105990;28;20416;-78
2024/02/10 01:48:44;;;;;;;0.30;0.20;;;14.90;99.90;;;;;;5107476;28;20444;-78
2024/02/10 01:51:11;;;;;;;0.30;0.20;;;14.90;99.90;;;;;;5107687;28;20954;-78
2024/02/10 01:53:38;;;;;;;0.70;0.67;;;14.90;99.90;;;;;;5107719;28;20941;-77
2024/02/10 01:56:08;;;;;;;1.37;1.27;;;14.90;99.90;;;;;;5105757;28;20574;-77
2024/02/10 01:58:34;;;;;;;0.50;0.50;;;14.90;99.90;;;;;;5107725;28;20542;-77
2024/02/10 02:01:00;;;;;;;0.30;0.20;;;14.80;99.90;;;;;;5107160;28;20457;-77
2024/02/10 02:03:28;;;;;;;0.30;0.20;;;14.80;99.90;;;;;;5107288;28;20440;-77
2024/02/10 02:05:54;;;;;;;0.30;0.20;;;14.80;99.90;;;;;;5105806;28;20424;-77
2024/02/10 02:08:20;;;;;;;0.77;0.77;;;14.80;99.90;;;;;;5107448;28;20543;-78
2024/02/10 02:10:47;;;;;;;0.30;0.20;;;14.70;99.90;;;;;;5107040;28;21172;-77
2024/02/10 02:13:12;;;;;;;0.30;0.30;;;14.70;99.90;;;;;;5105371;28;20489;-78
2024/02/10 02:15:39;;;;;;;0.30;0.20;;;14.60;99.90;;;;;;5106665;28;20408;-78
2024/02/10 02:18:06;;;;;;;2.13;2.03;;;14.60;99.90;;;;;;5106942;28;20223;-78
2024/02/10 02:20:32;;;;;;;0.30;0.20;;;14.60;99.90;;;;;;5105405;28;20566;-78
2024/02/10 02:23:00;;;;;;;4.83;4.63;;;14.60;99.90;;;;;;5106173;28;20443;-78
2024/02/10 02:25:26;;;;;;;0.33;0.30;;;14.40;99.90;;;;;;5105573;28;20175;-77
2024/02/10 02:27:51;;;;;;;0.30;0.20;;;14.40;99.90;;;;;;5105078;28;20448;-78
2024/02/10 02:30:17;;;;;;;0.30;0.20;;;14.40;99.90;;;;;;5105645;28;20211;-77
2024/02/10 02:32:43;;;;;;;0.30;0.20;;;14.40;99.90;;;;;;5106477;28;20199;-77
2024/02/10 02:35:09;;;;;;;0.30;0.20;;;14.40;99.90;;;;;;5107027;28;20765;-78
2024/02/10 02:37:42;;;;;;;0.30;0.20;;;14.40;99.90;;;;;;5104983;28;20657;-78
2024/02/10 02:40:12;;;;;;;0.53;0.53;;;14.40;99.90;;;;;;5105368;28;20605;-77
2024/02/10 02:42:38;;;;;;;0.30;0.20;;;14.40;99.90;;;;;;5106203;28;20482;-77
2024/02/10 02:45:07;;;;;;;0.30;0.20;;;14.40;99.90;;;;;;5105191;28;20455;-78
2024/02/10 02:47:36;;;;;;;0.30;0.20;;;14.40;99.90;;;;;;5106102;28;20412;-78
2024/02/10 02:50:09;;;;;;;0.30;0.20;;;14.40;99.90;;;;;;5104824;28;20654;-77
2024/02/10 02:52:35;;;;;;;1.80;1.07;;;14.40;99.90;;;;;;5106473;27;20439;-77
2024/02/10 02:55:01;;;;;;;0.30;0.30;;;14.40;99.90;;;;;;5104940;28;20451;-78
2024/02/10 02:57:31;;;;;;;0.30;0.20;;;14.30;99.90;;;;;;5104687;28;20443;-78
2024/02/10 02:59:57;;;;;;;2.77;2.63;;;14.40;99.90;;;;;;5106171;28;20529;-78
2024/02/10 03:02:23;;;;;;;0.30;0.20;;;14.40;99.90;;;;;;5104524;28;20448;-78
2024/02/10 03:04:48;;;;;;;0.30;0.20;;;14.30;99.90;;;;;;5104949;28;20508;-78
2024/02/10 03:07:17;;;;;;;0.97;0.97;;;14.30;99.90;;;;;;5105848;28;20191;-78
2024/02/10 03:09:44;;;;;;;0.30;0.20;;;14.40;99.90;;;;;;5106174;28;20700;-77
2024/02/10 03:12:11;;;;;;;0.30;0.20;;;14.30;99.90;;;;;;5105680;28;20456;-77
2024/02/10 03:14:41;;;;;;;0.40;0.20;;;14.40;99.90;;;;;;5106189;28;20687;-78
2024/02/10 03:17:10;;;;;;;0.40;0.40;;;14.40;99.90;;;;;;5104105;28;20424;-78
2024/02/10 03:19:38;;;;;;;0.30;0.30;;;14.40;99.90;;;;;;5104813;28;20452;-77
2024/02/10 03:22:05;;;;;;;0.30;0.20;;;14.40;99.90;;;;;;5104283;28;20412;-78
2024/02/10 03:24:32;;;;;;;0.30;0.20;;;14.30;99.90;;;;;;5104436;28;20463;-78
2024/02/10 03:26:58;;;;;;;0.30;0.20;;;14.40;99.90;;;;;;5105542;28;20397;-77
2024/02/10 03:29:23;;;;;;;0.30;0.30;;;14.30;99.90;;;;;;5105465;28;20474;-77
2024/02/10 03:31:49;;;;;;;0.30;0.20;;;14.30;99.90;;;;;;5105837;28;20232;-78
2024/02/10 03:34:15;;;;;;;0.30;0.30;;;14.30;99.90;;;;;;5103988;28;20268;-77
2024/02/10 03:36:41;;;;;;;0.47;0.47;;;14.30;99.90;;;;;;5105551;28;20781;-78
2024/02/10 03:39:07;;;;;;;0.30;0.30;;;14.30;99.90;;;;;;5105996;28;20483;-77
2024/02/10 03:41:33;;;;;;;0.30;0.20;;;14.30;99.90;;;;;;5105381;28;20396;-78
2024/02/10 03:44:01;;;;;;;0.77;0.77;;;14.30;99.90;;;;;;5104374;28;20272;-77
2024/02/10 03:46:30;;;;;;;0.30;0.20;;;14.20;99.90;;;;;;5105503;28;20931;-79
2024/02/10 03:48:59;;;;;;;0.30;0.30;;;14.20;99.90;;;;;;5105531;28;20444;-77
2024/02/10 03:51:29;;;;;;;0.30;0.20;;;14.10;99.90;;;;;;5105678;28;20503;-77
2024/02/10 03:53:57;;;;;;;0.30;0.20;;;14.10;99.90;;;;;;5104494;28;20479;-77
2024/02/10 03:56:27;;;;;;;0.40;0.30;;;14.00;99.90;;;;;;5105345;28;20412;-77
2024/02/10 03:58:53;;;;;;;0.30;0.20;;;13.90;99.90;;;;;;5105459;28;20432;-78
2024/02/10 04:01:18;;;;;;;0.30;0.20;;;13.90;99.90;;;;;;5105389;28;20402;-79
2024/02/10 04:03:45;;;;;;;0.30;0.20;;;13.90;99.90;;;;;;5105692;28;20228;-78
2024/02/10 04:06:11;;;;;;;0.30;0.20;;;13.90;99.90;;;;;;5105214;28;20674;-78
2024/02/10 04:08:37;;;;;;;0.30;0.20;;;13.80;99.90;;;;;;5104243;28;20447;-77
2024/02/10 04:11:07;;;;;;;0.30;0.20;;;13.70;99.90;;;;;;5104887;28;20930;-78
2024/02/10 04:13:33;;;;;;;0.30;0.20;;;13.70;99.90;;;;;;5105681;28;20443;-77
2024/02/10 04:15:59;;;;;;;2.23;1.60;;;13.80;99.90;;;;;;5103562;28;20432;-77
2024/02/10 04:18:27;;;;;;;0.30;0.20;;;13.70;99.90;;;;;;5105706;28;21017;-78
2024/02/10 04:20:56;;;;;;;0.30;0.20;;;13.70;99.90;;;;;;5103819;28;20420;-77
2024/02/10 04:23:28;;;;;;;0.30;0.20;;;13.70;99.90;;;;;;5103934;28;20666;-77
2024/02/10 04:25:54;;;;;;;0.30;0.20;;;13.60;99.90;;;;;;5104077;28;20416;-78
2024/02/10 04:28:20;;;;;;;0.40;0.40;;;13.60;99.90;;;;;;5104073;28;20460;-77
2024/02/10 04:30:46;;;;;;;0.30;0.20;;;13.50;99.90;;;;;;5104460;28;20481;-78
2024/02/10 04:33:13;;;;;;;0.30;0.20;;;13.60;99.90;;;;;;5104876;28;20452;-77
2024/02/10 04:35:39;;;;;;;0.60;0.60;;;13.50;99.90;;;;;;5105584;28;20415;-77
2024/02/10 04:38:08;;;;;;;0.30;0.20;;;13.50;99.90;;;;;;5104891;28;20440;-79
2024/02/10 04:40:34;;;;;;;0.30;0.20;;;13.60;99.90;;;;;;5105341;28;20913;-78
2024/02/10 04:43:00;;;;;;;0.30;0.20;;;13.60;99.90;;;;;;5105107;28;20447;-78
2024/02/10 04:45:31;;;;;;;0.60;0.43;;;13.60;99.90;;;;;;5105300;28;20908;-77
2024/02/10 04:47:57;;;;;;;0.40;0.20;;;13.60;99.90;;;;;;5107485;28;20187;-78
2024/02/10 04:50:23;;;;;;;1.70;1.60;;;13.60;99.90;;;;;;5108685;28;20463;-78
2024/02/10 04:52:50;;;;;;;0.30;0.20;;;13.60;99.90;;;;;;5108517;28;20654;-77
2024/02/10 04:55:15;;;;;;;0.30;0.20;;;13.70;99.90;;;;;;5107557;28;20416;-78
2024/02/10 04:57:42;;;;;;;0.30;0.20;;;13.70;99.90;;;;;;5106883;28;20552;-78
2024/02/10 05:00:12;;;;;;;0.30;0.20;;;13.80;99.90;;;;;;5107250;28;20404;-78
2024/02/10 05:02:38;;;;;;;0.30;0.20;;;13.70;99.90;;;;;;5108404;28;20443;-78
2024/02/10 05:05:07;;;;;;;0.53;0.53;;;13.70;99.90;;;;;;5108301;28;20583;-78
2024/02/10 05:07:33;;;;;;;0.40;0.20;;;13.60;99.90;;;;;;5108148;28;20893;-77
2024/02/10 05:10:00;;;;;;;0.30;0.20;;;13.60;99.90;;;;;;5108548;28;20605;-78
2024/02/10 05:12:27;;;;;;;0.30;0.20;;;13.50;99.90;;;;;;5107949;28;20415;-77
2024/02/10 05:14:54;;;;;;;0.30;0.20;;;13.50;99.90;;;;;;5106974;28;20526;-77
2024/02/10 05:17:20;;;;;;;0.30;0.20;;;13.40;99.90;;;;;;5107781;28;20400;-78
2024/02/10 05:19:46;;;;;;;0.30;0.20;;;13.40;99.90;;;;;;5108326;28;20916;-77
2024/02/10 05:22:13;;;;;;;0.30;0.20;;;13.40;99.90;;;;;;5106312;28;20416;-77
2024/02/10 05:24:46;;;;;;;0.30;0.20;;;13.40;99.90;;;;;;5108410;28;20456;-78
2024/02/10 05:27:13;;;;;;;5.37;2.27;;;13.40;99.90;;;;;;5106236;28;20416;-77
2024/02/10 05:29:38;;;;;;;0.30;0.20;;;13.30;99.90;;;;;;5105757;28;20483;-78
2024/02/10 05:32:05;;;;;;;0.30;0.20;;;13.20;99.90;;;;;;5107854;28;20601;-78
2024/02/10 05:34:31;;;;;;;2.83;2.73;;;13.20;99.90;;;;;;5106555;28;20203;-77
2024/02/10 05:37:00;;;;;;;4.50;1.67;;;13.20;99.90;;;;;;5105441;28;20412;-78
2024/02/10 05:39:28;;;;;;;0.30;0.20;;;13.20;99.90;;;;;;5104223;28;20456;-78
2024/02/10 05:41:54;;;;;;;0.40;0.30;;;13.20;99.90;;;;;;5123582;27;20408;-77
2024/02/10 05:44:22;;;;;;;0.60;0.60;;;13.20;99.90;;;;;;5107405;28;20617;-78
2024/02/10 05:46:48;;;;;;;0.30;0.30;;;13.20;99.90;;;;;;5107521;28;20411;-77
2024/02/10 05:49:16;;;;;;;0.30;0.20;;;13.10;99.90;;;;;;5107401;28;20844;-77
2024/02/10 05:51:41;;;;;;;0.30;0.27;;;13.10;99.90;;;;;;5107347;28;20164;-77
2024/02/10 05:54:07;;;;;;;0.30;0.20;;;13.00;99.90;;;;;;5107299;28;20436;-77
2024/02/10 05:56:35;;;;;;;0.30;0.20;;;13.00;99.90;;;;;;5123027;27;20667;-78
2024/02/10 05:59:03;;;;;;;0.30;0.20;;;13.00;99.90;;;;;;5106933;28;20393;-76
2024/02/10 06:01:30;;;;;;;0.30;0.20;;;12.90;99.90;;;;;;5123113;27;20425;-78
2024/02/10 06:03:56;;;;;;;0.30;0.20;;;12.90;99.90;;;;;;5122913;27;20462;-76
2024/02/10 06:06:22;;;;;;;0.30;0.20;;;12.90;99.90;;;;;;5106972;28;20481;-77
2024/02/10 06:08:47;;;;;;;0.40;0.40;;;12.90;99.90;;;;;;5122707;27;20772;-76
2024/02/10 06:11:18;;;;;;;0.60;0.60;;;12.80;99.90;;;;;;5122529;27;20472;-77
2024/02/10 06:13:49;;;;;;;1.33;1.23;;;12.80;99.90;;;;;;5107013;28;20489;-77
2024/02/10 06:16:15;;;;;;;0.30;0.20;;;12.80;99.90;;;;;;5106601;28;20877;-76
2024/02/10 06:18:41;;;;;;;0.30;0.20;;;12.70;99.90;;;;;;5106644;28;20455;-77
2024/02/10 06:21:08;;;;;;;0.30;0.20;;;12.80;99.90;;;;;;5122458;27;20850;-77
2024/02/10 06:23:35;;;;;;;0.30;0.20;;;12.70;99.90;;;;;;5107235;28;20444;-77
2024/02/10 06:26:01;;;;;;;0.30;0.20;;;12.60;99.90;;;;;;5106452;28;20426;-76
2024/02/10 06:28:27;;;;;;;0.30;0.20;;;12.60;99.90;;;;;;5106977;27;20432;-78
2024/02/10 06:30:55;;;;;;;0.30;0.27;;;12.60;99.90;;;;;;5105928;28;20459;-77
2024/02/10 06:33:26;;;;;;;0.30;0.20;;;12.50;99.90;;;;;;5106617;28;20956;-77
2024/02/10 06:35:53;;;;;;;0.30;0.20;;;12.50;99.90;;;;;;5106763;28;20458;-77
2024/02/10 06:38:19;;;;;;;1.87;1.80;;;12.50;99.90;;;;;;5122208;27;20538;-78
2024/02/10 06:40:45;;;;;;;0.30;0.20;;;12.50;99.90;;;;;;5122492;27;20996;-77
2024/02/10 06:43:12;;;;;;;0.30;0.30;;;12.60;99.90;;;;;;5106525;28;20360;-78
2024/02/10 06:45:40;;;;;;;0.30;0.20;;;12.60;99.90;;;;;;5122383;27;20172;-77
2024/02/10 06:48:09;;;;;;;0.30;0.20;;;12.70;99.90;;;;;;5121965;27;20973;-77
2024/02/10 06:50:36;;;;;;;0.30;0.20;;;12.70;99.90;;;;;;5106222;28;20501;-77
2024/02/10 06:53:03;;;;;;;0.50;0.50;;;12.60;99.90;;;;;;5106382;28;20443;-76
2024/02/10 06:55:29;;;;;;;0.30;0.20;;;12.70;99.90;;;;;;5106457;28;20444;-77
2024/02/10 06:57:55;;;;;;;0.30;0.30;;;12.70;99.90;;;;;;5106152;28;20474;-78
2024/02/10 07:00:22;;;;;;;0.40;0.30;;;12.80;99.90;;;;;;5122011;27;20175;-78
2024/02/10 07:02:48;;;;;;;0.90;0.83;;;12.80;99.90;;;;;;5105430;28;20443;-77
2024/02/10 07:05:19;;;;;;;0.30;0.20;;;12.80;99.90;;;;;;5105801;28;20409;-76
2024/02/10 07:07:49;;;;;;;0.30;0.20;;;12.90;99.90;;;;;;5121671;27;20504;-77
2024/02/10 07:10:19;;;;;;;1.70;1.60;;;12.90;99.90;;;;;;5120673;27;20464;-77
2024/02/10 07:12:50;;;;;;;3.03;2.93;;;13.00;99.90;;;;;;5105955;28;20436;-78
2024/02/10 07:15:20;;;;;;;0.30;0.20;;;13.00;99.90;;;;;;5121776;27;20424;-76
2024/02/10 07:17:49;;;;;;;0.30;0.20;;;13.00;99.90;;;;;;5105401;28;20436;-76
2024/02/10 07:20:25;;;;;;;3.70;3.50;;;13.00;99.90;;;;;;5121895;27;20412;-77
2024/02/10 07:23:00;;;;;;;0.30;0.20;;;13.10;99.90;;;;;;5105655;28;20432;-77
2024/02/10 07:25:30;;;;;;;0.30;0.20;;;13.20;99.90;;;;;;5121912;27;20989;-76
2024/02/10 07:28:01;;;;;;;0.30;0.20;;;13.20;99.90;;;;;;5105467;28;20811;-78
2024/02/10 07:30:34;;;;;;;0.30;0.30;;;13.20;99.90;;;;;;5106052;28;20470;-77
2024/02/10 07:33:09;;;;;;;0.50;0.50;;;13.20;99.90;;;;;;5104621;28;20479;-77
2024/02/10 07:35:36;;;;;;;0.30;0.20;;;13.30;99.90;;;;;;5121755;28;20701;-76
2024/02/10 07:38:02;;;;;;;1.03;1.03;;;13.50;99.90;;;;;;5105336;28;20675;-77
2024/02/10 07:40:27;;;;;;;0.40;0.40;;;13.70;99.90;;;;;;5105820;28;20408;-78
2024/02/10 07:42:53;;;;;;;0.30;0.20;;;13.80;99.90;;;;;;5105472;28;20590;-77
2024/02/10 07:45:20;;;;;;;1.43;1.40;;;14.00;99.90;;;;;;5105510;28;20680;-76
2024/02/10 07:47:46;;;;;;;0.30;0.20;;;14.20;99.90;;;;;;5121185;28;20211;-78
2024/02/10 07:50:14;;;;;;;0.30;0.30;;;14.40;99.90;;;;;;5105746;28;20598;-77
2024/02/10 07:52:41;;;;;;;0.30;0.20;;;14.60;99.90;;;;;;5119646;28;20460;-77
2024/02/10 07:55:12;;;;;;;0.30;0.20;;;14.80;99.90;;;;;;5105450;28;20768;-77
2024/02/10 07:57:38;;;;;;;0.30;0.20;;;15.10;99.90;;;;;;5121174;28;20975;-78
2024/02/10 08:00:05;;;;;;;0.40;0.20;;;15.50;99.90;;;;;;5121450;28;20883;-78
2024/02/10 08:02:31;;;;;;;0.40;0.40;;;15.80;99.90;;;;;;5105371;28;20881;-77
2024/02/10 08:04:58;;;;;;;0.37;0.27;;;16.10;99.90;;;;;;5105611;28;20408;-81
2024/02/10 08:07:29;;;;;;;0.40;0.20;;;16.70;99.90;;;;;;5104663;28;20554;-78
2024/02/10 08:09:58;;;;;;;0.90;0.90;;;17.20;99.90;;;;;;5119447;28;20605;-78
2024/02/10 08:12:25;;;;;;;0.40;0.20;;;17.60;99.90;;;;;;5103316;28;20587;-78
2024/02/10 08:14:52;;;;;;;0.40;0.30;;;18.20;99.90;;;;;;5104002;28;20449;-78
2024/02/10 08:17:20;;;;;;;0.40;0.20;;;18.70;99.90;;;;;;5103325;28;20662;-77
2024/02/10 08:19:46;;;;;;;0.40;0.30;;;19.00;99.20;;;;;;5119515;28;20423;-77
2024/02/10 08:22:13;;;;;;;0.50;0.50;;;19.30;98.80;;;;;;5122457;27;20400;-77
2024/02/10 08:24:39;;;;;;;0.40;0.20;;;19.70;98.30;;;;;;5109711;28;20818;-78
2024/02/10 08:27:10;;;;;;;0.40;0.20;;;20.20;97.30;;;;;;5109060;28;20414;-77
2024/02/10 08:29:35;;;;;;;0.40;0.30;;;20.50;96.70;;;;;;5108503;28;20574;-77
2024/02/10 08:32:02;;;;;;;0.40;0.27;;;20.50;96.50;;;;;;5104611;28;21023;-78
2024/02/10 08:34:35;;;;;;;0.40;0.30;;;20.20;96.50;;;;;;5107441;28;20708;-78
2024/02/10 08:37:04;;;;;;;0.40;0.20;;;19.80;96.80;;;;;;5108043;27;20435;-78
2024/02/10 08:39:31;;;;;;;0.30;0.20;;;19.30;97.20;;;;;;5116934;27;20460;-78
2024/02/10 08:42:01;;;;;;;0.30;0.20;;;18.80;97.60;;;;;;5106377;28;20440;-78
2024/02/10 08:44:28;;;;;;;0.30;0.20;;;18.30;98.20;;;;;;5109197;28;20966;-78
2024/02/10 08:46:53;;;;;;;0.30;0.20;;;17.90;98.70;;;;;;5107458;28;20504;-77
2024/02/10 08:49:19;;;;;;;0.30;0.20;;;17.60;99.20;;;;;;5111263;27;20900;-78
2024/02/10 08:51:49;;;;;;;0.30;0.20;;;17.40;99.60;;;;;;5107817;28;20549;-80
2024/02/10 08:54:18;;;;;;;0.30;0.20;;;17.10;99.80;;;;;;5119922;27;20222;-78
2024/02/10 08:56:44;;;;;;;0.30;0.20;;;16.90;99.90;;;;;;5104370;27;20533;-79
2024/02/10 08:59:13;;;;;;;0.40;0.30;;;16.80;99.90;;;;;;5092132;28;20546;-78
2024/02/10 09:01:42;;;;;;;0.73;0.73;;;16.70;99.90;;;;;;5107336;28;20185;-77
2024/02/10 09:04:11;;;;;;;1.13;1.13;;;16.70;99.90;;;;;;5105922;28;20467;-79
2024/02/10 09:06:37;;;;;;;0.90;0.90;;;16.60;99.90;;;;;;5106593;28;20416;-78
2024/02/10 09:09:04;;;;;;;0.30;0.20;;;16.70;99.90;;;;;;5106653;28;20460;-77
2024/02/10 09:11:37;;;;;;;0.40;0.20;;;16.80;99.90;;;;;;5105130;28;20453;-79
2024/02/10 09:14:03;;;;;;;0.40;0.33;;;17.00;99.90;;;;;;5112641;27;20463;-79
2024/02/10 09:16:30;;;;;;;0.30;0.20;;;17.30;99.90;;;;;;5100845;28;20483;-78
2024/02/10 09:18:57;;;;;;;3.07;1.70;;;17.60;99.90;;;;;;5109088;27;20463;-79
2024/02/10 09:21:22;;;;;;;0.40;0.30;;;17.80;99.90;;;;;;5105782;28;20407;-78
2024/02/10 09:23:48;;;;;;;0.30;0.20;;;18.00;99.90;;;;;;5106343;28;20467;-78
2024/02/10 09:26:18;;;;;;;1.90;0.97;;;18.20;99.80;;;;;;5106340;28;20185;-78
2024/02/10 09:28:47;;;;;;;0.30;0.20;;;18.40;99.00;;;;;;5106384;28;20211;-80
2024/02/10 09:31:13;;;;;;;0.43;0.37;;;18.60;98.50;;;;;;5107557;28;20460;-79
2024/02/10 09:33:43;;;;;;;1.23;1.13;;;18.80;98.30;;;;;;5104290;28;20463;-80
2024/02/10 09:36:12;;;;;;;0.40;0.20;;;19.30;97.70;;;;;;5104375;28;20448;-79
2024/02/10 09:38:42;;;;;;;0.40;0.33;;;19.70;97.10;;;;;;5106047;28;20460;-79
2024/02/10 09:41:13;;;;;;;0.40;0.30;;;20.10;97.00;;;;;;5116166;27;21002;-80
2024/02/10 09:43:40;;;;;;;0.40;0.20;;;20.70;96.10;;;;;;5107726;28;20541;-80
2024/02/10 09:46:07;;;;;;;0.40;0.33;;;21.00;94.90;;;;;;5105684;27;20428;-79
2024/02/10 09:48:38;;;;;;;0.40;0.20;;;21.10;94.80;;;;;;5085542;28;20452;-80
2024/02/10 09:51:04;;;;;;;1.23;1.23;;;21.40;94.90;;;;;;5105999;28;20456;-80
2024/02/10 09:53:30;;;;;;;0.40;0.20;;;21.50;94.10;;;;;;5106701;28;20538;-79
2024/02/10 09:55:56;;;;;;;0.40;0.20;;;21.60;93.60;;;;;;5105448;28;20425;-80
2024/02/10 09:58:26;;;;;;;0.30;0.20;;;21.60;93.70;;;;;;5104181;28;20549;-80
2024/02/10 10:00:52;;;;;;;0.40;0.20;;;21.60;93.60;;;;;;5111013;27;20311;-77
2024/02/10 10:03:19;;;;;;;0.30;0.30;;;21.60;93.50;;;;;;5104025;28;20859;-80
2024/02/10 10:05:45;;;;;;;0.30;0.20;;;21.60;93.30;;;;;;5103482;28;20863;-80
2024/02/10 10:08:12;;;;;;;0.30;0.20;;;21.70;93.30;;;;;;5104507;28;20468;-80
2024/02/10 10:10:38;;;;;;;0.40;0.30;;;21.80;92.80;;;;;;5115924;27;20643;-79
2024/02/10 10:13:10;;;;;;;0.30;0.20;;;21.60;93.10;;;;;;5108027;27;20503;-80
2024/02/10 10:15:40;;;;;;;0.40;0.30;;;21.50;93.30;;;;;;5111225;27;20909;-78
2024/02/10 10:18:15;;;;;;;1.90;1.80;;;21.40;93.40;;;;;;5102895;28;20461;-78
2024/02/10 10:20:48;;;;;;;0.40;0.40;;;21.00;93.20;;;;;;5100512;28;20516;-78
2024/02/10 10:23:17;;;;;;;0.30;0.20;;;20.70;93.50;;;;;;5100739;28;21243;-78
2024/02/10 10:25:46;;;;;;;0.30;0.20;;;20.30;93.70;;;;;;5104019;28;20408;-79
2024/02/10 10:28:17;;;;;;;0.30;0.20;;;20.00;94.00;;;;;;5102924;28;20459;-79
2024/02/10 10:30:45;;;;;;;0.30;0.20;;;19.80;94.20;;;;;;5103874;28;20468;-79
2024/02/10 10:33:11;;;;;;;0.30;0.20;;;19.60;94.60;;;;;;5120814;27;20475;-78
2024/02/10 10:35:41;;;;;;;0.30;0.20;;;19.50;94.40;;;;;;5110515;27;20418;-78
2024/02/10 10:38:09;;;;;;;0.30;0.20;;;19.50;94.60;;;;;;5104606;28;20604;-78
2024/02/10 10:40:35;;;;;;;2.43;2.30;;;19.40;94.50;;;;;;5103593;28;20423;-78
2024/02/10 10:43:05;;;;;;;0.30;0.30;;;19.30;94.40;;;;;;5109971;27;20787;-78
2024/02/10 10:45:33;;;;;;;0.30;0.20;;;19.40;94.70;;;;;;5102073;28;20917;-78
2024/02/10 10:48:01;;;;;;;0.30;0.20;;;19.40;95.10;;;;;;5103316;28;20470;-78
2024/02/10 10:50:28;;;;;;;0.30;0.30;;;19.40;94.50;;;;;;5119573;27;20461;-79
2024/02/10 10:53:07;;;;;;;0.30;0.20;;;19.50;94.80;;;;;;5102713;28;20531;-78
2024/02/10 10:55:43;;;;;;;0.30;0.20;;;19.60;95.20;;;;;;5104516;28;20467;-78
2024/02/10 10:58:11;;;;;;;0.30;0.20;;;19.60;94.70;;;;;;5119944;27;20992;-78
2024/02/10 11:00:41;;;;;;;0.30;0.20;;;19.50;94.80;;;;;;5120277;27;20845;-78
2024/02/10 11:03:06;;;;;;;0.30;0.20;;;19.50;95.30;;;;;;5104467;28;20789;-78
2024/02/10 11:05:38;;;;;;;0.30;0.20;;;19.60;95.50;;;;;;5120698;27;20751;-79
2024/02/10 11:08:06;;;;;;;0.30;0.20;;;19.80;95.10;;;;;;5121500;27;20203;-79
2024/02/10 11:10:36;;;;;;;2.80;2.63;;;19.90;95.00;;;;;;5105982;28;20488;-78
2024/02/10 11:13:04;;;;;;;0.30;0.20;;;19.90;94.80;;;;;;5120624;27;20681;-79
2024/02/10 11:15:29;;;;;;;0.30;0.20;;;20.00;95.10;;;;;;5120447;27;20439;-79
2024/02/10 11:18:01;;;;;;;0.30;0.20;;;20.20;95.00;;;;;;5103692;28;20443;-78
2024/02/10 11:20:34;;;;;;;0.30;0.20;;;20.20;94.80;;;;;;5104294;28;20500;-77
2024/02/10 11:23:13;;;;;;;0.30;0.20;;;20.10;94.20;;;;;;5103765;28;20451;-77
2024/02/10 11:25:40;;;;;;;0.30;0.20;;;19.80;94.40;;;;;;5104416;28;20380;-78
2024/02/10 11:28:29;;;;;;;3.20;2.63;;;19.70;95.00;;;;;;5103835;28;20459;-77
2024/02/10 11:31:08;;;;;;;13.63;2.03;;;19.70;94.60;;;;;;5103854;28;20579;-77
2024/02/10 11:33:33;;;;;;;0.30;0.20;;;19.70;94.60;;;;;;5119859;27;20462;-78
2024/02/10 11:35:59;;;;;;;0.30;0.20;;;19.70;94.50;;;;;;5103706;28;20397;-77
2024/02/10 11:38:25;;;;;;;0.30;0.20;;;19.60;94.50;;;;;;5104833;28;20204;-78
2024/02/10 11:40:51;;;;;;;1.20;1.17;;;19.50;94.60;;;;;;5105075;28;20170;-77
2024/02/10 11:43:16;;;;;;;0.30;0.30;;;19.50;94.70;;;;;;5105111;28;20214;-77
2024/02/10 11:45:43;;;;;;;0.30;0.20;;;19.50;94.60;;;;;;5121542;28;20175;-77
2024/02/10 11:48:09;;;;;;;0.40;0.30;;;19.50;94.70;;;;;;5120923;28;20204;-78
2024/02/10 11:50:45;;;;;;;0.50;0.50;;;19.50;94.90;;;;;;5105481;28;20456;-77
2024/02/10 11:53:15;;;;;;;0.30;0.20;;;19.60;94.50;;;;;;5105375;28;20199;-78
2024/02/10 11:55:41;;;;;;;0.30;0.20;;;19.60;94.60;;;;;;5122114;27;20412;-78
2024/02/10 11:58:16;;;;;;;0.30;0.20;;;19.70;94.60;;;;;;5123869;27;20436;-77
2024/02/10 12:00:44;;;;;;;0.30;0.20;;;19.70;94.50;;;;;;5123847;27;20399;-78
2024/02/10 12:03:13;;;;;;;0.30;0.20;;;19.80;94.90;;;;;;5123495;27;20452;-78
2024/02/10 12:05:40;;;;;;;0.30;0.30;;;20.00;94.90;;;;;;5108787;28;20579;-77
2024/02/10 12:08:09;;;;;;;0.30;0.20;;;20.20;94.70;;;;;;5107872;28;20519;-78
2024/02/10 12:10:42;;;;;;;0.57;0.57;;;20.30;94.60;;;;;;5107916;27;20590;-77
2024/02/10 12:13:11;;;;;;;0.30;0.30;;;20.30;94.50;;;;;;5107338;28;20444;-78
2024/02/10 12:15:40;;;;;;;0.30;0.20;;;20.40;94.70;;;;;;5108187;28;20412;-78
2024/02/10 12:18:07;;;;;;;0.30;0.20;;;20.50;94.70;;;;;;5107836;28;20484;-77
2024/02/10 12:20:39;;;;;;;3.60;3.43;;;20.50;94.70;;;;;;5107700;28;20409;-78
2024/02/10 12:23:05;;;;;;;0.30;0.20;;;20.60;94.70;;;;;;5108014;28;20594;-78
2024/02/10 12:25:33;;;;;;;0.30;0.20;;;20.70;94.30;;;;;;5125101;27;20458;-78
2024/02/10 12:27:59;;;;;;;0.30;0.20;;;20.80;94.10;;;;;;5108934;28;20462;-77
2024/02/10 12:30:25;;;;;;;0.30;0.20;;;20.90;93.30;;;;;;5109291;28;20675;-78
2024/02/10 12:32:51;;;;;;;0.60;0.50;;;21.00;93.10;;;;;;5124382;27;20554;-77
2024/02/10 12:35:20;;;;;;;0.30;0.20;;;21.00;92.70;;;;;;5125008;27;20266;-78
2024/02/10 12:37:47;;;;;;;0.30;0.20;;;21.00;92.30;;;;;;5108887;28;20450;-78
2024/02/10 12:40:13;;;;;;;0.30;0.20;;;20.90;92.00;;;;;;5124029;27;20913;-78
2024/02/10 12:42:42;;;;;;;1.23;1.23;;;20.70;92.30;;;;;;5108457;28;20856;-77
2024/02/10 12:45:15;;;;;;;0.30;0.20;;;20.70;92.60;;;;;;5124816;27;20890;-78
2024/02/10 12:47:43;;;;;;;0.30;0.20;;;20.70;92.70;;;;;;5108661;28;20489;-77
2024/02/10 12:50:09;;;;;;;0.30;0.20;;;20.60;92.80;;;;;;5124634;27;20471;-78